createdAt,value
2018-07-22T00:00:36.496Z,1007.6
2018-07-22T00:01:36.521Z,1007.57
2018-07-22T00:02:36.550Z,1007.55
2018-07-22T00:03:36.570Z,1007.55
2018-07-22T00:04:36.596Z,1007.56
2018-07-22T00:06:36.646Z,1007.59
2018-07-22T00:07:36.670Z,1007.59
2018-07-22T00:08:36.795Z,1007.59
2018-07-22T00:09:36.720Z,1007.6
2018-07-22T00:10:36.745Z,1007.62
2018-07-22T00:11:36.769Z,1007.64
2018-07-22T00:12:36.793Z,1007.62
2018-07-22T00:13:36.819Z,1007.65
2018-07-22T00:14:36.845Z,1007.64
2018-07-22T00:15:36.868Z,1007.68
2018-07-22T00:16:36.893Z,1007.64
2018-07-22T00:17:36.917Z,1007.59
2018-07-22T00:18:36.941Z,1007.56
2018-07-22T00:19:36.967Z,1007.58
2018-07-22T00:20:36.992Z,1007.61
2018-07-22T00:21:37.017Z,1007.6
2018-07-22T00:22:37.046Z,1007.61
2018-07-22T00:23:37.066Z,1007.6
2018-07-22T00:24:37.091Z,1007.59
2018-07-22T00:25:37.115Z,1007.59
2018-07-22T00:26:37.142Z,1007.63
2018-07-22T00:27:37.165Z,1007.6
2018-07-22T00:28:37.189Z,1007.6
2018-07-22T00:29:37.214Z,1007.59
2018-07-22T00:30:37.238Z,1007.61
2018-07-22T00:31:37.263Z,1007.62
2018-07-22T00:32:37.288Z,1007.64
2018-07-22T00:33:37.312Z,1007.62
2018-07-22T00:34:37.337Z,1007.59
2018-07-22T00:35:37.362Z,1007.6
2018-07-22T00:36:37.386Z,1007.61
2018-07-22T00:38:37.435Z,1007.62
2018-07-22T00:39:37.458Z,1007.61
2018-07-22T00:40:37.484Z,1007.64
2018-07-22T00:41:37.509Z,1007.64
2018-07-22T00:42:37.534Z,1007.61
2018-07-22T00:43:37.557Z,1007.64
2018-07-22T00:44:37.585Z,1007.65
2018-07-22T00:45:37.609Z,1007.63
2018-07-22T00:46:37.632Z,1007.65
2018-07-22T00:47:37.656Z,1007.68
2018-07-22T00:48:37.681Z,1007.68
2018-07-22T00:49:37.709Z,1007.67
2018-07-22T00:50:37.730Z,1007.67
2018-07-22T00:51:37.753Z,1007.66
2018-07-22T00:52:37.778Z,1007.61
2018-07-22T00:54:37.829Z,1007.67
2018-07-22T00:55:37.851Z,1007.66
2018-07-22T00:56:37.877Z,1007.67
2018-07-22T00:57:37.905Z,1007.7
2018-07-22T00:58:37.925Z,1007.73
2018-07-22T00:59:37.949Z,1007.73
2018-07-22T01:00:37.975Z,1007.77
2018-07-22T01:01:38.000Z,1007.77
2018-07-22T01:02:38.024Z,1007.74
2018-07-22T01:03:38.048Z,1007.76
2018-07-22T01:04:38.073Z,1007.73
2018-07-22T01:05:38.096Z,1007.74
2018-07-22T01:06:38.122Z,1007.74
2018-07-22T01:07:38.148Z,1007.72
2018-07-22T01:08:38.172Z,1007.75
2018-07-22T01:10:38.218Z,1007.7
2018-07-22T01:11:38.246Z,1007.68
2018-07-22T01:12:38.269Z,1007.68
2018-07-22T01:13:38.292Z,1007.74
2018-07-22T01:14:38.317Z,1007.71
2018-07-22T01:15:38.342Z,1007.72
2018-07-22T01:16:38.367Z,1007.7
2018-07-22T01:17:38.391Z,1007.74
2018-07-22T01:18:38.414Z,1007.7
2018-07-22T01:19:38.440Z,1007.74
2018-07-22T01:20:38.463Z,1007.76
2018-07-22T01:21:38.489Z,1007.74
2018-07-22T01:22:38.513Z,1007.73
2018-07-22T01:23:38.537Z,1007.76
2018-07-22T01:24:38.561Z,1007.72
2018-07-22T01:26:38.610Z,1007.74
2018-07-22T01:27:38.636Z,1007.75
2018-07-22T01:28:38.659Z,1007.8
2018-07-22T01:29:38.685Z,1007.75
2018-07-22T01:30:38.712Z,1007.75
2018-07-22T01:31:38.733Z,1007.73
2018-07-22T01:32:38.757Z,1007.74
2018-07-22T01:33:38.781Z,1007.71
2018-07-22T01:34:38.809Z,1007.68
2018-07-22T01:35:38.834Z,1007.68
2018-07-22T01:36:38.857Z,1007.69
2018-07-22T01:37:38.879Z,1007.66
2018-07-22T01:38:38.905Z,1007.72
2018-07-22T01:39:38.927Z,1007.71
2018-07-22T01:41:38.983Z,1007.72
2018-07-22T01:42:39.000Z,1007.72
2018-07-22T01:43:39.027Z,1007.7
2018-07-22T01:44:39.052Z,1007.69
2018-07-22T01:45:39.076Z,1007.71
2018-07-22T01:46:39.098Z,1007.73
2018-07-22T01:47:39.124Z,1007.71
2018-07-22T01:48:39.149Z,1007.72
2018-07-22T01:49:39.173Z,1007.74
2018-07-22T01:50:39.197Z,1007.76
2018-07-22T01:51:39.222Z,1007.77
2018-07-22T01:52:39.246Z,1007.8
2018-07-22T01:53:39.269Z,1007.85
2018-07-22T01:54:39.312Z,1007.81
2018-07-22T01:55:39.320Z,1007.85
2018-07-22T01:56:39.348Z,1007.84
2018-07-22T01:57:39.367Z,1007.89
2018-07-22T01:58:39.391Z,1007.92
2018-07-22T01:59:39.417Z,1007.92
2018-07-22T02:00:39.444Z,1007.94
2018-07-22T02:01:39.509Z,1007.92
2018-07-22T02:02:39.489Z,1007.92
2018-07-22T02:03:39.514Z,1007.88
2018-07-22T02:04:39.538Z,1007.91
2018-07-22T02:05:39.564Z,1007.89
2018-07-22T02:06:39.587Z,1007.91
2018-07-22T02:07:39.616Z,1007.92
2018-07-22T02:08:39.634Z,1007.91
2018-07-22T02:09:39.660Z,1007.93
2018-07-22T02:10:39.683Z,1007.9
2018-07-22T02:11:39.708Z,1007.91
2018-07-22T02:13:39.757Z,1007.92
2018-07-22T02:14:39.781Z,1007.88
2018-07-22T02:15:39.805Z,1007.88
2018-07-22T02:16:39.830Z,1007.88
2018-07-22T02:17:39.855Z,1007.87
2018-07-22T02:18:39.881Z,1007.85
2018-07-22T02:19:39.903Z,1007.84
2018-07-22T02:20:39.927Z,1007.88
2018-07-22T02:21:39.952Z,1007.84
2018-07-22T02:22:39.974Z,1007.84
2018-07-22T02:23:39.999Z,1007.84
2018-07-22T02:24:40.026Z,1007.85
2018-07-22T02:25:40.048Z,1007.88
2018-07-22T02:26:40.071Z,1007.86
2018-07-22T02:27:40.096Z,1007.88
2018-07-22T02:29:40.170Z,1007.85
2018-07-22T02:30:40.170Z,1007.87
2018-07-22T02:31:40.193Z,1007.83
2018-07-22T02:32:40.222Z,1007.89
2018-07-22T02:33:40.242Z,1007.86
2018-07-22T02:34:40.265Z,1007.86
2018-07-22T02:35:40.293Z,1007.88
2018-07-22T02:36:40.322Z,1007.88
2018-07-22T02:37:40.337Z,1007.9
2018-07-22T02:38:40.362Z,1007.9
2018-07-22T02:39:40.387Z,1007.91
2018-07-22T02:40:40.411Z,1007.89
2018-07-22T02:41:40.434Z,1007.88
2018-07-22T02:42:40.459Z,1007.9
2018-07-22T02:43:40.484Z,1007.85
2018-07-22T02:45:40.531Z,1007.92
2018-07-22T02:46:40.555Z,1007.92
2018-07-22T02:47:40.579Z,1007.95
2018-07-22T02:48:40.603Z,1007.94
2018-07-22T02:49:40.627Z,1007.96
2018-07-22T02:50:40.652Z,1007.89
2018-07-22T02:51:40.675Z,1007.87
2018-07-22T02:52:40.699Z,1007.9
2018-07-22T02:53:40.730Z,1007.89
2018-07-22T02:54:40.746Z,1007.88
2018-07-22T02:55:40.771Z,1007.88
2018-07-22T02:56:40.795Z,1007.89
2018-07-22T02:57:40.820Z,1007.86
2018-07-22T02:58:40.846Z,1007.88
2018-07-22T02:59:40.867Z,1007.93
2018-07-22T03:01:40.918Z,1007.9
2018-07-22T03:02:40.940Z,1007.91
2018-07-22T03:03:40.964Z,1007.94
2018-07-22T03:04:40.988Z,1007.94
2018-07-22T03:05:41.013Z,1007.96
2018-07-22T03:06:41.036Z,1007.95
2018-07-22T03:07:41.060Z,1007.99
2018-07-22T03:08:41.088Z,1007.99
2018-07-22T03:09:41.109Z,1007.99
2018-07-22T03:10:41.132Z,1008.01
2018-07-22T03:11:41.157Z,1008.01
2018-07-22T03:12:41.180Z,1008.02
2018-07-22T03:13:41.206Z,1008.03
2018-07-22T03:14:41.232Z,1007.99
2018-07-22T03:16:41.277Z,1007.99
2018-07-22T03:17:41.307Z,1008.01
2018-07-22T03:18:41.325Z,1008.03
2018-07-22T03:19:41.349Z,1008.05
2018-07-22T03:20:41.376Z,1008.01
2018-07-22T03:21:41.397Z,1008.03
2018-07-22T03:22:41.419Z,1008.04
2018-07-22T03:23:41.443Z,1008.03
2018-07-22T03:24:41.476Z,1008.06
2018-07-22T03:25:41.492Z,1008.08
2018-07-22T03:26:41.517Z,1008.07
2018-07-22T03:27:41.542Z,1008.07
2018-07-22T03:28:41.563Z,1008.09
2018-07-22T03:29:41.589Z,1008.05
2018-07-22T03:30:41.613Z,1008.08
2018-07-22T03:31:41.637Z,1008.12
2018-07-22T03:32:41.660Z,1008.13
2018-07-22T03:33:41.683Z,1008.13
2018-07-22T03:34:41.710Z,1008.09
2018-07-22T03:35:41.733Z,1008.14
2018-07-22T03:36:41.756Z,1008.11
2018-07-22T03:37:41.780Z,1008.15
2018-07-22T03:38:41.805Z,1008.14
2018-07-22T03:39:41.827Z,1008.13
2018-07-22T03:40:41.855Z,1008.18
2018-07-22T03:41:41.876Z,1008.12
2018-07-22T03:42:41.901Z,1008.11
2018-07-22T03:43:41.924Z,1008.12
2018-07-22T03:44:41.947Z,1008.13
2018-07-22T03:45:41.973Z,1008.11
2018-07-22T03:46:41.996Z,1008.08
2018-07-22T03:48:42.044Z,1008.11
2018-07-22T03:49:42.072Z,1008.09
2018-07-22T03:50:42.192Z,1008.08
2018-07-22T03:51:42.121Z,1008.12
2018-07-22T03:52:42.140Z,1008.07
2018-07-22T03:53:42.164Z,1008.1
2018-07-22T03:54:42.191Z,1008.12
2018-07-22T03:55:42.212Z,1008.14
2018-07-22T03:56:42.235Z,1008.09
2018-07-22T03:57:42.260Z,1008.11
2018-07-22T03:58:42.284Z,1008.14
2018-07-22T03:59:42.308Z,1008.16
2018-07-22T04:00:42.332Z,1008.16
2018-07-22T04:01:42.356Z,1008.17
2018-07-22T04:02:42.380Z,1008.16
2018-07-22T04:04:42.429Z,1008.18
2018-07-22T04:05:42.451Z,1008.19
2018-07-22T04:06:42.476Z,1008.2
2018-07-22T04:07:42.500Z,1008.22
2018-07-22T04:08:42.527Z,1008.17
2018-07-22T04:09:42.549Z,1008.16
2018-07-22T04:10:42.572Z,1008.17
2018-07-22T04:11:42.596Z,1008.18
2018-07-22T04:12:42.619Z,1008.16
2018-07-22T04:13:42.644Z,1008.13
2018-07-22T04:14:42.669Z,1008.17
2018-07-22T04:15:42.692Z,1008.14
2018-07-22T04:16:42.716Z,1008.18
2018-07-22T04:17:42.740Z,1008.18
2018-07-22T04:18:42.765Z,1008.18
2018-07-22T04:20:42.812Z,1008.2
2018-07-22T04:21:42.838Z,1008.2
2018-07-22T04:22:42.860Z,1008.17
2018-07-22T04:23:42.884Z,1008.19
2018-07-22T04:24:42.909Z,1008.17
2018-07-22T04:25:42.933Z,1008.19
2018-07-22T04:26:42.957Z,1008.15
2018-07-22T04:27:42.980Z,1008.14
2018-07-22T04:28:43.004Z,1008.13
2018-07-22T04:29:43.029Z,1008.17
2018-07-22T04:30:43.052Z,1008.19
2018-07-22T04:31:43.077Z,1008.18
2018-07-22T04:32:43.103Z,1008.14
2018-07-22T04:33:43.124Z,1008.14
2018-07-22T04:34:43.149Z,1008.11
2018-07-22T04:36:43.197Z,1008.13
2018-07-22T04:37:43.222Z,1008.12
2018-07-22T04:38:43.247Z,1008.09
2018-07-22T04:39:43.269Z,1008.11
2018-07-22T04:40:43.302Z,1008.07
2018-07-22T04:41:43.316Z,1008.09
2018-07-22T04:42:43.343Z,1008.09
2018-07-22T04:43:43.366Z,1008.12
2018-07-22T04:44:43.391Z,1008.15
2018-07-22T04:45:43.414Z,1008.15
2018-07-22T04:46:43.439Z,1008.17
2018-07-22T04:47:43.464Z,1008.16
2018-07-22T04:48:43.492Z,1008.19
2018-07-22T04:49:43.513Z,1008.21
2018-07-22T04:51:43.562Z,1008.25
2018-07-22T04:52:43.585Z,1008.26
2018-07-22T04:53:43.609Z,1008.28
2018-07-22T04:54:43.634Z,1008.28
2018-07-22T04:55:43.659Z,1008.28
2018-07-22T04:56:43.683Z,1008.24
2018-07-22T04:57:43.707Z,1008.26
2018-07-22T04:58:43.731Z,1008.26
2018-07-22T04:59:43.756Z,1008.24
2018-07-22T05:00:43.780Z,1008.23
2018-07-22T05:01:43.805Z,1008.23
2018-07-22T05:02:43.830Z,1008.27
2018-07-22T05:03:43.852Z,1008.22
2018-07-22T05:04:43.878Z,1008.22
2018-07-22T05:05:43.903Z,1008.24
2018-07-22T05:06:43.927Z,1008.21
2018-07-22T05:07:43.952Z,1008.23
2018-07-22T05:08:43.975Z,1008.22
2018-07-22T05:09:44.000Z,1008.2
2018-07-22T05:10:44.025Z,1008.25
2018-07-22T05:11:44.049Z,1008.2
2018-07-22T05:12:44.075Z,1008.23
2018-07-22T05:13:44.098Z,1008.22
2018-07-22T05:14:44.124Z,1008.26
2018-07-22T05:15:44.148Z,1008.26
2018-07-22T05:16:44.173Z,1008.26
2018-07-22T05:17:44.198Z,1008.23
2018-07-22T05:18:44.221Z,1008.2
2018-07-22T05:19:44.246Z,1008.26
2018-07-22T05:20:44.271Z,1008.27
2018-07-22T05:21:44.295Z,1008.23
2018-07-22T05:23:44.345Z,1008.25
2018-07-22T05:24:44.369Z,1008.26
2018-07-22T05:25:44.394Z,1008.26
2018-07-22T05:26:44.419Z,1008.22
2018-07-22T05:27:44.444Z,1008.26
2018-07-22T05:28:44.469Z,1008.23
2018-07-22T05:29:44.493Z,1008.24
2018-07-22T05:30:44.518Z,1008.2
2018-07-22T05:31:44.543Z,1008.21
2018-07-22T05:32:44.566Z,1008.23
2018-07-22T05:33:44.592Z,1008.25
2018-07-22T05:34:44.616Z,1008.24
2018-07-22T05:35:44.651Z,1008.27
2018-07-22T05:36:44.667Z,1008.27
2018-07-22T05:37:44.692Z,1008.28
2018-07-22T05:39:44.742Z,1008.3
2018-07-22T05:40:44.775Z,1008.29
2018-07-22T05:41:44.791Z,1008.29
2018-07-22T05:42:44.817Z,1008.33
2018-07-22T05:43:44.842Z,1008.35
2018-07-22T05:44:44.866Z,1008.38
2018-07-22T05:45:44.891Z,1008.34
2018-07-22T05:46:44.916Z,1008.41
2018-07-22T05:47:44.941Z,1008.41
2018-07-22T05:48:44.966Z,1008.42
2018-07-22T05:49:44.991Z,1008.43
2018-07-22T05:50:45.017Z,1008.42
2018-07-22T05:51:45.041Z,1008.42
2018-07-22T05:52:45.066Z,1008.39
2018-07-22T05:53:45.091Z,1008.43
2018-07-22T05:55:45.141Z,1008.41
2018-07-22T05:56:45.171Z,1008.38
2018-07-22T05:57:45.191Z,1008.36
2018-07-22T05:58:45.217Z,1008.34
2018-07-22T05:59:45.242Z,1008.38
2018-07-22T06:00:45.266Z,1008.37
2018-07-22T06:01:45.290Z,1008.41
2018-07-22T06:02:45.315Z,1008.38
2018-07-22T06:03:45.342Z,1008.43
2018-07-22T06:04:45.366Z,1008.43
2018-07-22T06:05:45.391Z,1008.42
2018-07-22T06:06:45.415Z,1008.46
2018-07-22T06:07:45.450Z,1008.44
2018-07-22T06:08:45.466Z,1008.43
2018-07-22T06:09:45.491Z,1008.44
2018-07-22T06:11:45.587Z,1008.43
2018-07-22T06:12:45.567Z,1008.46
2018-07-22T06:13:45.592Z,1008.46
2018-07-22T06:14:45.616Z,1008.41
2018-07-22T06:15:45.643Z,1008.46
2018-07-22T06:16:45.710Z,1008.46
2018-07-22T06:17:45.694Z,1008.47
2018-07-22T06:18:45.717Z,1008.46
2018-07-22T06:19:45.747Z,1008.48
2018-07-22T06:20:45.769Z,1008.49
2018-07-22T06:21:45.794Z,1008.51
2018-07-22T06:22:45.820Z,1008.45
2018-07-22T06:23:45.844Z,1008.46
2018-07-22T06:24:45.871Z,1008.49
2018-07-22T06:26:45.922Z,1008.53
2018-07-22T06:27:45.946Z,1008.57
2018-07-22T06:28:45.972Z,1008.6
2018-07-22T06:29:45.997Z,1008.59
2018-07-22T06:30:46.023Z,1008.61
2018-07-22T06:31:46.047Z,1008.59
2018-07-22T06:32:46.073Z,1008.62
2018-07-22T06:33:46.099Z,1008.64
2018-07-22T06:34:46.124Z,1008.59
2018-07-22T06:35:46.158Z,1008.6
2018-07-22T06:36:46.174Z,1008.64
2018-07-22T06:37:46.201Z,1008.66
2018-07-22T06:38:46.227Z,1008.66
2018-07-22T06:39:46.252Z,1008.7
2018-07-22T06:40:46.281Z,1008.69
2018-07-22T06:41:46.304Z,1008.71
2018-07-22T06:42:46.329Z,1008.71
2018-07-22T06:43:46.355Z,1008.71
2018-07-22T06:44:46.380Z,1008.7
2018-07-22T06:45:46.414Z,1008.7
2018-07-22T06:46:46.433Z,1008.72
2018-07-22T06:47:46.459Z,1008.72
2018-07-22T06:48:46.485Z,1008.74
2018-07-22T06:49:46.510Z,1008.71
2018-07-22T06:50:46.537Z,1008.79
2018-07-22T06:51:46.563Z,1008.81
2018-07-22T06:52:46.590Z,1008.89
2018-07-22T06:53:46.616Z,1008.9
2018-07-22T06:54:46.642Z,1008.93
2018-07-22T06:55:46.669Z,1008.94
2018-07-22T06:56:46.695Z,1008.96
2018-07-22T06:58:46.751Z,1008.98
2018-07-22T06:59:46.776Z,1008.9
2018-07-22T07:00:46.807Z,1008.86
2018-07-22T07:01:46.829Z,1008.9
2018-07-22T07:02:46.858Z,1008.91
2018-07-22T07:03:46.886Z,1008.93
2018-07-22T07:04:46.913Z,1008.9
2018-07-22T07:05:46.940Z,1008.88
2018-07-22T07:06:46.967Z,1008.91
2018-07-22T07:07:46.995Z,1008.91
2018-07-22T07:08:47.025Z,1008.91
2018-07-22T07:09:47.053Z,1008.92
2018-07-22T07:10:47.082Z,1008.97
2018-07-22T07:11:47.109Z,1008.97
2018-07-22T07:12:47.138Z,1008.96
2018-07-22T07:14:47.196Z,1009.06
2018-07-22T07:15:47.224Z,1009.05
2018-07-22T07:16:47.254Z,1009.05
2018-07-22T07:17:47.281Z,1009.19
2018-07-22T07:18:47.309Z,1009.25
2018-07-22T07:19:47.342Z,1009.22
2018-07-22T07:20:47.376Z,1009.09
2018-07-22T07:21:47.400Z,1008.97
2018-07-22T07:22:47.428Z,1008.89
2018-07-22T07:23:47.459Z,1008.88
2018-07-22T07:24:47.489Z,1008.92
2018-07-22T07:25:47.520Z,1008.93
2018-07-22T07:26:47.608Z,1009.05
2018-07-22T07:27:47.577Z,1009.04
2018-07-22T07:28:47.607Z,1008.92
2018-07-22T07:30:47.666Z,1008.79
2018-07-22T07:31:47.696Z,1008.88
2018-07-22T07:32:47.729Z,1008.86
2018-07-22T07:33:47.754Z,1008.84
2018-07-22T07:34:47.784Z,1008.83
2018-07-22T07:35:47.914Z,1008.84
2018-07-22T07:36:47.843Z,1008.83
2018-07-22T07:37:47.871Z,1008.83
2018-07-22T07:38:47.901Z,1008.84
2018-07-22T07:39:47.928Z,1008.85
2018-07-22T07:40:47.956Z,1008.85
2018-07-22T07:41:47.986Z,1008.85
2018-07-22T07:42:48.015Z,1008.84
2018-07-22T07:43:48.044Z,1008.84
2018-07-22T07:44:48.072Z,1008.86
2018-07-22T07:46:48.129Z,1008.88
2018-07-22T07:47:48.158Z,1008.89
2018-07-22T07:48:48.186Z,1008.86
2018-07-22T07:49:48.214Z,1008.88
2018-07-22T07:50:48.244Z,1008.88
2018-07-22T07:51:48.270Z,1008.88
2018-07-22T07:52:48.302Z,1008.92
2018-07-22T07:53:48.328Z,1008.93
2018-07-22T07:54:48.356Z,1009.02
2018-07-22T07:55:48.384Z,1009.05
2018-07-22T07:56:48.412Z,1009.05
2018-07-22T07:57:48.441Z,1009.14
2018-07-22T07:58:48.470Z,1009.03
2018-07-22T07:59:48.498Z,1008.97
2018-07-22T08:01:48.555Z,1009.03
2018-07-22T08:02:48.583Z,1009.06
2018-07-22T08:03:48.613Z,1009.16
2018-07-22T08:04:48.642Z,1009.11
2018-07-22T08:05:48.681Z,1009.19
2018-07-22T08:06:48.699Z,1009.25
2018-07-22T08:07:48.728Z,1009.24
2018-07-22T08:08:48.757Z,1009.28
2018-07-22T08:09:48.787Z,1009.28
2018-07-22T08:10:48.815Z,1009.29
2018-07-22T08:11:48.904Z,1009.26
2018-07-22T08:12:48.876Z,1009.09
2018-07-22T08:13:48.905Z,1009.06
2018-07-22T08:14:48.935Z,1009.11
2018-07-22T08:15:48.969Z,1009.05
2018-07-22T08:16:48.996Z,1009.05
2018-07-22T08:17:49.024Z,1009.05
2018-07-22T08:18:49.055Z,1009.12
2018-07-22T08:19:49.086Z,1009.2
2018-07-22T08:20:49.114Z,1009.24
2018-07-22T08:21:49.272Z,1009.29
2018-07-22T08:22:49.177Z,1009.24
2018-07-22T08:23:49.206Z,1009.14
2018-07-22T08:24:49.235Z,1009.16
2018-07-22T08:25:49.265Z,1009.13
2018-07-22T08:26:49.327Z,1009.11
2018-07-22T08:27:49.326Z,1009.11
2018-07-22T08:28:49.355Z,1009.12
2018-07-22T08:29:49.386Z,1009.11
2018-07-22T08:30:49.416Z,1009.09
2018-07-22T08:31:49.446Z,1009.11
2018-07-22T08:33:49.506Z,1009.18
2018-07-22T08:34:49.539Z,1009.14
2018-07-22T08:35:49.569Z,1009.09
2018-07-22T08:36:49.596Z,1009.14
2018-07-22T08:37:49.728Z,1009.17
2018-07-22T08:38:49.658Z,1009.16
2018-07-22T08:39:49.690Z,1009.18
2018-07-22T08:40:49.717Z,1009.13
2018-07-22T08:41:49.747Z,1009.11
2018-07-22T08:42:49.776Z,1009.16
2018-07-22T08:43:49.808Z,1009.17
2018-07-22T08:44:49.839Z,1009.16
2018-07-22T08:45:49.869Z,1009.12
2018-07-22T08:46:49.902Z,1009.07
2018-07-22T08:47:49.930Z,1009.08
2018-07-22T08:49:49.992Z,1009.06
2018-07-22T08:50:50.025Z,1009.08
2018-07-22T08:51:50.051Z,1009.07
2018-07-22T08:52:50.086Z,1009.1
2018-07-22T08:53:50.212Z,1009.11
2018-07-22T08:54:50.146Z,1009.13
2018-07-22T08:55:50.172Z,1009.1
2018-07-22T08:56:50.203Z,1009.11
2018-07-22T08:57:50.237Z,1009.05
2018-07-22T08:58:50.298Z,1009.07
2018-07-22T08:59:50.295Z,1009.04
2018-07-22T09:00:50.324Z,1009.05
2018-07-22T09:01:50.355Z,1009.06
2018-07-22T09:02:50.386Z,1009.11
2018-07-22T09:03:50.418Z,1009.13
2018-07-22T09:05:50.482Z,1009.05
2018-07-22T09:06:50.509Z,1009.09
2018-07-22T09:07:50.540Z,1009.07
2018-07-22T09:08:50.570Z,1009.07
2018-07-22T09:09:50.602Z,1009.11
2018-07-22T09:10:50.631Z,1009.11
2018-07-22T09:11:50.692Z,1009.11
2018-07-22T09:12:50.694Z,1009.11
2018-07-22T09:13:50.724Z,1009.09
2018-07-22T09:14:50.760Z,1009.11
2018-07-22T09:15:50.787Z,1009.12
2018-07-22T09:16:50.819Z,1009.14
2018-07-22T09:17:50.900Z,1009.16
2018-07-22T09:18:50.895Z,1009.18
2018-07-22T09:19:50.914Z,1009.14
2018-07-22T09:21:50.978Z,1009.15
2018-07-22T09:22:51.010Z,1009.16
2018-07-22T09:23:51.041Z,1009.15
2018-07-22T09:24:51.075Z,1009.16
2018-07-22T09:25:51.108Z,1009.17
2018-07-22T09:26:51.140Z,1009.17
2018-07-22T09:27:51.172Z,1009.1
2018-07-22T09:28:51.204Z,1009.13
2018-07-22T09:29:51.237Z,1009.14
2018-07-22T09:30:51.269Z,1009.1
2018-07-22T09:31:51.302Z,1009.12
2018-07-22T09:32:51.336Z,1009.12
2018-07-22T09:33:51.369Z,1009.13
2018-07-22T09:34:51.402Z,1009.1
2018-07-22T09:36:51.468Z,1009.13
2018-07-22T09:37:51.500Z,1009.09
2018-07-22T09:38:51.534Z,1009.12
2018-07-22T09:39:51.566Z,1009.12
2018-07-22T09:40:51.600Z,1009.13
2018-07-22T09:41:51.669Z,1009.11
2018-07-22T09:42:51.671Z,1009.1
2018-07-22T09:43:51.697Z,1009.11
2018-07-22T09:44:51.728Z,1009.1
2018-07-22T09:45:51.762Z,1009.1
2018-07-22T09:46:51.794Z,1009.09
2018-07-22T09:47:51.825Z,1009.12
2018-07-22T09:48:51.859Z,1009.13
2018-07-22T09:49:51.891Z,1009.08
2018-07-22T09:50:51.923Z,1009.09
2018-07-22T09:51:51.956Z,1009.11
2018-07-22T09:52:51.988Z,1009.11
2018-07-22T09:53:52.021Z,1009.11
2018-07-22T09:54:52.057Z,1009.11
2018-07-22T09:55:52.088Z,1009.12
2018-07-22T09:56:52.118Z,1009.11
2018-07-22T09:57:52.150Z,1009.11
2018-07-22T09:58:52.182Z,1009.1
2018-07-22T09:59:52.215Z,1009.13
2018-07-22T10:00:52.248Z,1009.1
2018-07-22T10:01:52.289Z,1009.11
2018-07-22T10:02:52.313Z,1009.08
2018-07-22T10:03:52.347Z,1009.13
2018-07-22T10:04:52.420Z,1009.07
2018-07-22T10:05:52.409Z,1009.09
2018-07-22T10:06:52.442Z,1009.11
2018-07-22T10:08:52.508Z,1009.1
2018-07-22T10:09:52.541Z,1009.11
2018-07-22T10:10:52.572Z,1009.11
2018-07-22T10:11:52.604Z,1009.09
2018-07-22T10:12:52.637Z,1009.09
2018-07-22T10:13:52.671Z,1009.12
2018-07-22T10:14:52.703Z,1009.07
2018-07-22T10:15:52.737Z,1009.07
2018-07-22T10:16:52.767Z,1009.09
2018-07-22T10:17:52.808Z,1009.1
2018-07-22T10:18:52.832Z,1009.04
2018-07-22T10:19:52.865Z,1009.1
2018-07-22T10:20:52.897Z,1009.05
2018-07-22T10:21:52.930Z,1009.05
2018-07-22T10:22:52.961Z,1009.04
2018-07-22T10:24:53.027Z,1009.07
2018-07-22T10:25:53.059Z,1009.06
2018-07-22T10:26:53.091Z,1009.02
2018-07-22T10:27:53.124Z,1009.04
2018-07-22T10:28:53.155Z,1009.01
2018-07-22T10:29:53.189Z,1009.02
2018-07-22T10:30:53.230Z,1009.04
2018-07-22T10:31:53.252Z,1009.01
2018-07-22T10:32:53.284Z,1008.98
2018-07-22T10:33:53.315Z,1008.99
2018-07-22T10:34:53.347Z,1009.01
2018-07-22T10:35:53.463Z,1009
2018-07-22T10:36:53.412Z,1008.99
2018-07-22T10:37:53.443Z,1008.99
2018-07-22T10:38:53.486Z,1008.97
2018-07-22T10:40:53.562Z,1008.96
2018-07-22T10:41:53.571Z,1008.97
2018-07-22T10:42:53.602Z,1008.96
2018-07-22T10:43:53.634Z,1008.99
2018-07-22T10:44:53.665Z,1008.98
2018-07-22T10:45:53.697Z,1008.97
2018-07-22T10:46:53.730Z,1008.98
2018-07-22T10:47:53.761Z,1008.99
2018-07-22T10:48:53.793Z,1008.97
2018-07-22T10:49:53.824Z,1008.98
2018-07-22T10:50:53.890Z,1008.98
2018-07-22T10:51:53.888Z,1008.96
2018-07-22T10:52:53.923Z,1008.94
2018-07-22T10:53:53.953Z,1008.98
2018-07-22T10:54:53.983Z,1008.98
2018-07-22T10:56:54.048Z,1008.95
2018-07-22T10:57:54.080Z,1008.93
2018-07-22T10:58:54.111Z,1008.93
2018-07-22T10:59:54.149Z,1008.91
2018-07-22T11:00:54.176Z,1008.91
2018-07-22T11:01:54.207Z,1008.91
2018-07-22T11:02:54.239Z,1008.91
2018-07-22T11:03:54.272Z,1008.94
2018-07-22T11:04:54.303Z,1008.99
2018-07-22T11:05:54.335Z,1008.93
2018-07-22T11:06:54.369Z,1008.9
2018-07-22T11:07:54.400Z,1008.87
2018-07-22T11:08:54.432Z,1008.91
2018-07-22T11:09:54.466Z,1008.91
2018-07-22T11:11:54.528Z,1008.9
2018-07-22T11:12:54.558Z,1008.95
2018-07-22T11:13:54.590Z,1008.91
2018-07-22T11:14:54.666Z,1008.91
2018-07-22T11:15:54.656Z,1008.95
2018-07-22T11:16:54.685Z,1008.92
2018-07-22T11:17:54.718Z,1008.93
2018-07-22T11:18:54.752Z,1008.95
2018-07-22T11:19:54.793Z,1008.95
2018-07-22T11:20:54.879Z,1008.92
2018-07-22T11:21:54.846Z,1008.97
2018-07-22T11:22:54.881Z,1008.95
2018-07-22T11:23:54.909Z,1008.94
2018-07-22T11:24:54.941Z,1008.96
2018-07-22T11:25:54.974Z,1008.94
2018-07-22T11:26:55.005Z,1008.94
2018-07-22T11:27:55.041Z,1008.95
2018-07-22T11:28:55.133Z,1008.93
2018-07-22T11:29:55.102Z,1008.91
2018-07-22T11:30:55.132Z,1008.91
2018-07-22T11:31:55.163Z,1008.96
2018-07-22T11:32:55.196Z,1008.95
2018-07-22T11:33:55.229Z,1008.94
2018-07-22T11:34:55.259Z,1008.9
2018-07-22T11:35:55.319Z,1008.91
2018-07-22T11:36:55.324Z,1008.94
2018-07-22T11:37:55.356Z,1008.9
2018-07-22T11:38:55.388Z,1008.87
2018-07-22T11:39:55.420Z,1008.86
2018-07-22T11:40:55.452Z,1008.89
2018-07-22T11:41:55.490Z,1008.9
2018-07-22T11:43:55.638Z,1008.87
2018-07-22T11:44:55.579Z,1008.87
2018-07-22T11:45:55.610Z,1008.86
2018-07-22T11:46:55.643Z,1008.85
2018-07-22T11:47:55.675Z,1008.8
2018-07-22T11:48:55.711Z,1008.87
2018-07-22T11:49:55.738Z,1008.83
2018-07-22T11:50:55.769Z,1008.87
2018-07-22T11:51:55.802Z,1008.84
2018-07-22T11:52:55.832Z,1008.78
2018-07-22T11:53:55.865Z,1008.83
2018-07-22T11:54:55.897Z,1008.8
2018-07-22T11:55:55.928Z,1008.86
2018-07-22T11:56:55.960Z,1008.85
2018-07-22T11:57:55.991Z,1008.85
2018-07-22T11:59:56.055Z,1008.82
2018-07-22T12:00:56.086Z,1008.79
2018-07-22T12:01:56.117Z,1008.8
2018-07-22T12:02:56.153Z,1008.84
2018-07-22T12:03:56.180Z,1008.8
2018-07-22T12:04:56.212Z,1008.81
2018-07-22T12:05:56.308Z,1008.82
2018-07-22T12:06:56.275Z,1008.78
2018-07-22T12:07:56.305Z,1008.8
2018-07-22T12:08:56.336Z,1008.77
2018-07-22T12:09:56.372Z,1008.74
2018-07-22T12:10:56.400Z,1008.77
2018-07-22T12:11:56.430Z,1008.78
2018-07-22T12:12:56.493Z,1008.79
2018-07-22T12:13:56.492Z,1008.79
2018-07-22T12:15:56.556Z,1008.78
2018-07-22T12:16:56.585Z,1008.79
2018-07-22T12:17:56.618Z,1008.79
2018-07-22T12:18:56.648Z,1008.8
2018-07-22T12:19:56.679Z,1008.82
2018-07-22T12:20:56.711Z,1008.78
2018-07-22T12:21:56.743Z,1008.79
2018-07-22T12:22:56.776Z,1008.81
2018-07-22T12:23:56.804Z,1008.81
2018-07-22T12:24:56.836Z,1008.83
2018-07-22T12:25:56.866Z,1008.83
2018-07-22T12:26:56.897Z,1008.81
2018-07-22T12:27:56.928Z,1008.79
2018-07-22T12:28:56.960Z,1008.78
2018-07-22T12:29:56.999Z,1008.8
2018-07-22T12:31:57.056Z,1008.82
2018-07-22T12:32:57.090Z,1008.84
2018-07-22T12:33:57.115Z,1008.85
2018-07-22T12:34:57.146Z,1008.84
2018-07-22T12:35:57.176Z,1008.83
2018-07-22T12:36:57.205Z,1008.8
2018-07-22T12:37:57.238Z,1008.81
2018-07-22T12:38:57.269Z,1008.74
2018-07-22T12:39:57.300Z,1008.76
2018-07-22T12:40:57.330Z,1008.76
2018-07-22T12:41:57.361Z,1008.76
2018-07-22T12:42:57.392Z,1008.77
2018-07-22T12:43:57.423Z,1008.75
2018-07-22T12:44:57.454Z,1008.73
2018-07-22T12:46:57.515Z,1008.69
2018-07-22T12:47:57.546Z,1008.71
2018-07-22T12:48:57.577Z,1008.67